sensor_id;sensor_type;location;lat;lon;timestamp;P1;durP1;ratioP1;P2;durP2;ratioP2
56015;SDS011;41894;51.016;4.672;2023-02-23T00:00:07;596.22;;;110.80;;
56015;SDS011;41894;51.016;4.672;2023-02-23T00:02:45;443.85;;;101.63;;
56015;SDS011;41894;51.016;4.672;2023-02-23T00:05:14;521.13;;;101.72;;
56015;SDS011;41894;51.016;4.672;2023-02-23T00:07:42;419.48;;;98.03;;
56015;SDS011;41894;51.016;4.672;2023-02-23T00:10:10;355.88;;;92.20;;
56015;SDS011;41894;51.016;4.672;2023-02-23T00:12:37;396.48;;;96.40;;
56015;SDS011;41894;51.016;4.672;2023-02-23T00:15:03;384.80;;;94.65;;
56015;SDS011;41894;51.016;4.672;2023-02-23T00:17:29;382.98;;;87.50;;
56015;SDS011;41894;51.016;4.672;2023-02-23T00:19:55;323.08;;;85.30;;
56015;SDS011;41894;51.016;4.672;2023-02-23T00:22:25;405.88;;;83.32;;
56015;SDS011;41894;51.016;4.672;2023-02-23T00:24:51;470.27;;;91.97;;
56015;SDS011;41894;51.016;4.672;2023-02-23T00:27:16;403.10;;;86.90;;
56015;SDS011;41894;51.016;4.672;2023-02-23T00:29:43;502.88;;;93.53;;
56015;SDS011;41894;51.016;4.672;2023-02-23T00:32:13;491.55;;;96.95;;
56015;SDS011;41894;51.016;4.672;2023-02-23T00:34:43;353.38;;;89.40;;
56015;SDS011;41894;51.016;4.672;2023-02-23T00:37:09;388.02;;;88.07;;
56015;SDS011;41894;51.016;4.672;2023-02-23T00:39:36;504.02;;;94.45;;
56015;SDS011;41894;51.016;4.672;2023-02-23T00:42:02;494.02;;;99.47;;
56015;SDS011;41894;51.016;4.672;2023-02-23T00:44:30;588.90;;;101.13;;
56015;SDS011;41894;51.016;4.672;2023-02-23T00:47:01;359.48;;;91.95;;
56015;SDS011;41894;51.016;4.672;2023-02-23T00:49:27;383.88;;;84.35;;
56015;SDS011;41894;51.016;4.672;2023-02-23T00:51:53;364.25;;;88.90;;
56015;SDS011;41894;51.016;4.672;2023-02-23T00:54:19;337.80;;;85.38;;
56015;SDS011;41894;51.016;4.672;2023-02-23T00:56:46;332.42;;;84.30;;
56015;SDS011;41894;51.016;4.672;2023-02-23T00:59:12;350.25;;;89.40;;
56015;SDS011;41894;51.016;4.672;2023-02-23T01:01:38;328.02;;;84.63;;
56015;SDS011;41894;51.016;4.672;2023-02-23T01:04:09;268.15;;;85.32;;
56015;SDS011;41894;51.016;4.672;2023-02-23T01:06:36;278.08;;;81.63;;
56015;SDS011;41894;51.016;4.672;2023-02-23T01:09:05;296.75;;;84.82;;
56015;SDS011;41894;51.016;4.672;2023-02-23T01:11:38;228.25;;;75.95;;
56015;SDS011;41894;51.016;4.672;2023-02-23T01:14:05;220.05;;;73.95;;
56015;SDS011;41894;51.016;4.672;2023-02-23T01:16:32;212.45;;;72.90;;
56015;SDS011;41894;51.016;4.672;2023-02-23T01:18:59;200.98;;;70.00;;
56015;SDS011;41894;51.016;4.672;2023-02-23T01:21:34;197.35;;;69.65;;
56015;SDS011;41894;51.016;4.672;2023-02-23T01:24:02;190.90;;;65.05;;
56015;SDS011;41894;51.016;4.672;2023-02-23T01:26:30;194.82;;;67.80;;
56015;SDS011;41894;51.016;4.672;2023-02-23T01:28:59;208.45;;;70.55;;
56015;SDS011;41894;51.016;4.672;2023-02-23T01:31:28;201.25;;;70.10;;
56015;SDS011;41894;51.016;4.672;2023-02-23T01:33:55;191.40;;;68.60;;
56015;SDS011;41894;51.016;4.672;2023-02-23T01:36:22;239.45;;;75.22;;
56015;SDS011;41894;51.016;4.672;2023-02-23T01:38:49;222.68;;;74.93;;
56015;SDS011;41894;51.016;4.672;2023-02-23T01:41:19;222.80;;;70.82;;
56015;SDS011;41894;51.016;4.672;2023-02-23T01:43:57;222.48;;;72.57;;
56015;SDS011;41894;51.016;4.672;2023-02-23T01:46:29;220.98;;;68.75;;
56015;SDS011;41894;51.016;4.672;2023-02-23T01:49:09;213.02;;;68.82;;
56015;SDS011;41894;51.016;4.672;2023-02-23T01:51:40;205.70;;;71.15;;
56015;SDS011;41894;51.016;4.672;2023-02-23T01:54:13;199.57;;;69.40;;
56015;SDS011;41894;51.016;4.672;2023-02-23T01:56:45;191.55;;;65.57;;
56015;SDS011;41894;51.016;4.672;2023-02-23T01:59:21;187.82;;;66.28;;
56015;SDS011;41894;51.016;4.672;2023-02-23T02:01:52;175.80;;;64.93;;
56015;SDS011;41894;51.016;4.672;2023-02-23T02:04:19;170.43;;;63.35;;
56015;SDS011;41894;51.016;4.672;2023-02-23T02:06:47;168.23;;;64.07;;
56015;SDS011;41894;51.016;4.672;2023-02-23T02:09:18;193.82;;;68.35;;
56015;SDS011;41894;51.016;4.672;2023-02-23T02:11:49;202.10;;;68.75;;
56015;SDS011;41894;51.016;4.672;2023-02-23T02:14:19;192.18;;;69.40;;
56015;SDS011;41894;51.016;4.672;2023-02-23T02:17:00;224.60;;;74.65;;
56015;SDS011;41894;51.016;4.672;2023-02-23T02:42:07;240.52;;;68.50;;
56015;SDS011;41894;51.016;4.672;2023-02-23T02:44:58;229.20;;;64.93;;
56015;SDS011;41894;51.016;4.672;2023-02-23T02:52:47;238.75;;;62.47;;
56015;SDS011;41894;51.016;4.672;2023-02-23T02:55:34;237.63;;;63.35;;
56015;SDS011;41894;51.016;4.672;2023-02-23T02:58:05;217.85;;;58.95;;
56015;SDS011;41894;51.016;4.672;2023-02-23T03:00:37;227.18;;;61.33;;
56015;SDS011;41894;51.016;4.672;2023-02-23T03:03:31;202.38;;;56.05;;
56015;SDS011;41894;51.016;4.672;2023-02-23T03:06:28;233.27;;;60.72;;
56015;SDS011;41894;51.016;4.672;2023-02-23T03:12:28;287.55;;;64.53;;
56015;SDS011;41894;51.016;4.672;2023-02-23T03:16:09;260.65;;;63.22;;
56015;SDS011;41894;51.016;4.672;2023-02-23T03:19:10;252.00;;;57.38;;
56015;SDS011;41894;51.016;4.672;2023-02-23T03:22:04;241.10;;;60.90;;
56015;SDS011;41894;51.016;4.672;2023-02-23T03:28:06;259.67;;;59.67;;
56015;SDS011;41894;51.016;4.672;2023-02-23T03:31:00;282.38;;;62.42;;
56015;SDS011;41894;51.016;4.672;2023-02-23T03:34:26;276.73;;;63.42;;
56015;SDS011;41894;51.016;4.672;2023-02-23T03:37:09;288.35;;;63.10;;
56015;SDS011;41894;51.016;4.672;2023-02-23T03:40:11;274.05;;;61.25;;
56015;SDS011;41894;51.016;4.672;2023-02-23T03:43:04;259.58;;;58.53;;
56015;SDS011;41894;51.016;4.672;2023-02-23T03:45:54;263.73;;;58.60;;
56015;SDS011;41894;51.016;4.672;2023-02-23T03:48:39;227.73;;;52.42;;
56015;SDS011;41894;51.016;4.672;2023-02-23T03:51:26;210.23;;;50.97;;
56015;SDS011;41894;51.016;4.672;2023-02-23T03:54:21;169.27;;;46.38;;
56015;SDS011;41894;51.016;4.672;2023-02-23T03:57:12;173.05;;;46.60;;
56015;SDS011;41894;51.016;4.672;2023-02-23T04:00:02;164.98;;;44.38;;
56015;SDS011;41894;51.016;4.672;2023-02-23T04:02:50;143.85;;;40.63;;
56015;SDS011;41894;51.016;4.672;2023-02-23T04:05:37;139.50;;;41.75;;
56015;SDS011;41894;51.016;4.672;2023-02-23T04:08:33;153.52;;;41.53;;
56015;SDS011;41894;51.016;4.672;2023-02-23T04:14:07;170.38;;;42.30;;
56015;SDS011;41894;51.016;4.672;2023-02-23T04:16:40;151.38;;;40.22;;
56015;SDS011;41894;51.016;4.672;2023-02-23T04:19:07;156.20;;;42.17;;
56015;SDS011;41894;51.016;4.672;2023-02-23T04:21:32;155.75;;;42.63;;
56015;SDS011;41894;51.016;4.672;2023-02-23T04:23:58;174.75;;;43.00;;
56015;SDS011;41894;51.016;4.672;2023-02-23T04:26:23;136.07;;;40.45;;
56015;SDS011;41894;51.016;4.672;2023-02-23T04:28:49;130.80;;;40.60;;
56015;SDS011;41894;51.016;4.672;2023-02-23T04:31:15;166.02;;;43.15;;
56015;SDS011;41894;51.016;4.672;2023-02-23T04:33:42;137.65;;;40.47;;
56015;SDS011;41894;51.016;4.672;2023-02-23T04:36:08;161.13;;;43.67;;
56015;SDS011;41894;51.016;4.672;2023-02-23T04:38:34;161.68;;;43.90;;
56015;SDS011;41894;51.016;4.672;2023-02-23T04:40:59;160.80;;;41.50;;
56015;SDS011;41894;51.016;4.672;2023-02-23T04:43:25;182.95;;;42.85;;
56015;SDS011;41894;51.016;4.672;2023-02-23T04:45:51;173.73;;;42.90;;
56015;SDS011;41894;51.016;4.672;2023-02-23T04:48:17;159.45;;;42.17;;
56015;SDS011;41894;51.016;4.672;2023-02-23T04:50:43;192.50;;;44.45;;
56015;SDS011;41894;51.016;4.672;2023-02-23T04:53:08;180.27;;;46.22;;
56015;SDS011;41894;51.016;4.672;2023-02-23T04:55:34;172.82;;;44.38;;
56015;SDS011;41894;51.016;4.672;2023-02-23T04:58:00;191.52;;;46.00;;
56015;SDS011;41894;51.016;4.672;2023-02-23T05:00:26;214.00;;;47.00;;
56015;SDS011;41894;51.016;4.672;2023-02-23T05:02:53;249.43;;;49.47;;
56015;SDS011;41894;51.016;4.672;2023-02-23T05:05:19;224.10;;;49.13;;
56015;SDS011;41894;51.016;4.672;2023-02-23T05:07:45;185.80;;;47.95;;
56015;SDS011;41894;51.016;4.672;2023-02-23T05:10:11;219.60;;;48.58;;
56015;SDS011;41894;51.016;4.672;2023-02-23T05:12:37;214.85;;;47.95;;
56015;SDS011;41894;51.016;4.672;2023-02-23T05:15:02;203.23;;;47.63;;
56015;SDS011;41894;51.016;4.672;2023-02-23T05:17:28;215.38;;;47.15;;
56015;SDS011;41894;51.016;4.672;2023-02-23T05:19:54;213.52;;;46.88;;
56015;SDS011;41894;51.016;4.672;2023-02-23T05:22:20;216.60;;;47.30;;
56015;SDS011;41894;51.016;4.672;2023-02-23T05:24:46;201.23;;;46.30;;
56015;SDS011;41894;51.016;4.672;2023-02-23T05:27:12;272.08;;;45.92;;
56015;SDS011;41894;51.016;4.672;2023-02-23T05:29:38;273.15;;;46.30;;
56015;SDS011;41894;51.016;4.672;2023-02-23T05:32:05;224.57;;;45.67;;
56015;SDS011;41894;51.016;4.672;2023-02-23T05:34:31;199.23;;;44.10;;
56015;SDS011;41894;51.016;4.672;2023-02-23T05:36:57;218.90;;;45.85;;
56015;SDS011;41894;51.016;4.672;2023-02-23T05:39:22;247.93;;;47.72;;
56015;SDS011;41894;51.016;4.672;2023-02-23T05:41:48;272.88;;;46.67;;
56015;SDS011;41894;51.016;4.672;2023-02-23T05:44:13;224.18;;;44.60;;
56015;SDS011;41894;51.016;4.672;2023-02-23T05:46:39;222.90;;;44.67;;
56015;SDS011;41894;51.016;4.672;2023-02-23T05:49:05;205.85;;;42.28;;
56015;SDS011;41894;51.016;4.672;2023-02-23T05:51:31;168.50;;;42.70;;
56015;SDS011;41894;51.016;4.672;2023-02-23T05:53:58;200.90;;;45.28;;
56015;SDS011;41894;51.016;4.672;2023-02-23T05:56:24;178.63;;;44.90;;
56015;SDS011;41894;51.016;4.672;2023-02-23T05:58:51;211.80;;;46.08;;
56015;SDS011;41894;51.016;4.672;2023-02-23T06:01:18;231.48;;;45.58;;
56015;SDS011;41894;51.016;4.672;2023-02-23T06:03:46;263.83;;;47.55;;
56015;SDS011;41894;51.016;4.672;2023-02-23T06:06:12;225.75;;;46.60;;
56015;SDS011;41894;51.016;4.672;2023-02-23T06:08:37;252.10;;;48.28;;
56015;SDS011;41894;51.016;4.672;2023-02-23T06:11:03;289.55;;;47.72;;
56015;SDS011;41894;51.016;4.672;2023-02-23T06:13:30;253.02;;;48.50;;
56015;SDS011;41894;51.016;4.672;2023-02-23T06:15:57;284.70;;;45.33;;
56015;SDS011;41894;51.016;4.672;2023-02-23T06:18:24;258.75;;;45.40;;
56015;SDS011;41894;51.016;4.672;2023-02-23T06:20:50;328.88;;;49.63;;
56015;SDS011;41894;51.016;4.672;2023-02-23T06:23:16;342.33;;;52.20;;
56015;SDS011;41894;51.016;4.672;2023-02-23T06:25:42;361.38;;;55.10;;
56015;SDS011;41894;51.016;4.672;2023-02-23T06:28:10;286.40;;;55.33;;
56015;SDS011;41894;51.016;4.672;2023-02-23T06:30:36;355.90;;;57.15;;
56015;SDS011;41894;51.016;4.672;2023-02-23T06:33:02;324.92;;;57.38;;
56015;SDS011;41894;51.016;4.672;2023-02-23T06:35:29;323.27;;;58.38;;
56015;SDS011;41894;51.016;4.672;2023-02-23T06:37:56;335.77;;;57.03;;
56015;SDS011;41894;51.016;4.672;2023-02-23T06:40:22;312.02;;;54.38;;
56015;SDS011;41894;51.016;4.672;2023-02-23T06:42:48;308.27;;;59.13;;
56015;SDS011;41894;51.016;4.672;2023-02-23T06:45:14;374.50;;;57.75;;
56015;SDS011;41894;51.016;4.672;2023-02-23T06:47:40;326.77;;;55.75;;
56015;SDS011;41894;51.016;4.672;2023-02-23T06:50:06;322.80;;;53.78;;
56015;SDS011;41894;51.016;4.672;2023-02-23T06:52:33;323.73;;;55.72;;
56015;SDS011;41894;51.016;4.672;2023-02-23T06:54:59;365.15;;;59.67;;
56015;SDS011;41894;51.016;4.672;2023-02-23T06:57:24;379.17;;;50.97;;
56015;SDS011;41894;51.016;4.672;2023-02-23T06:59:50;335.02;;;56.95;;
56015;SDS011;41894;51.016;4.672;2023-02-23T07:02:17;411.58;;;60.28;;
56015;SDS011;41894;51.016;4.672;2023-02-23T07:04:43;388.13;;;61.63;;
56015;SDS011;41894;51.016;4.672;2023-02-23T07:07:09;434.92;;;62.22;;
56015;SDS011;41894;51.016;4.672;2023-02-23T07:09:37;354.73;;;67.25;;
56015;SDS011;41894;51.016;4.672;2023-02-23T07:12:07;388.77;;;65.80;;
56015;SDS011;41894;51.016;4.672;2023-02-23T07:14:33;393.75;;;63.58;;
56015;SDS011;41894;51.016;4.672;2023-02-23T07:16:59;345.00;;;62.10;;
56015;SDS011;41894;51.016;4.672;2023-02-23T07:19:24;356.70;;;64.53;;
56015;SDS011;41894;51.016;4.672;2023-02-23T07:21:50;328.58;;;60.88;;
56015;SDS011;41894;51.016;4.672;2023-02-23T07:24:16;332.10;;;60.03;;
56015;SDS011;41894;51.016;4.672;2023-02-23T07:26:42;317.92;;;59.67;;
56015;SDS011;41894;51.016;4.672;2023-02-23T07:29:10;324.00;;;60.40;;
56015;SDS011;41894;51.016;4.672;2023-02-23T07:31:37;292.90;;;57.17;;
56015;SDS011;41894;51.016;4.672;2023-02-23T07:34:03;275.33;;;54.53;;
56015;SDS011;41894;51.016;4.672;2023-02-23T07:36:29;239.85;;;51.90;;
56015;SDS011;41894;51.016;4.672;2023-02-23T07:38:54;266.55;;;53.88;;
56015;SDS011;41894;51.016;4.672;2023-02-23T07:41:21;253.60;;;50.90;;
56015;SDS011;41894;51.016;4.672;2023-02-23T07:43:46;216.82;;;51.05;;
56015;SDS011;41894;51.016;4.672;2023-02-23T07:46:12;230.25;;;51.05;;
56015;SDS011;41894;51.016;4.672;2023-02-23T07:48:39;162.52;;;47.83;;
56015;SDS011;41894;51.016;4.672;2023-02-23T07:51:12;186.55;;;50.10;;
56015;SDS011;41894;51.016;4.672;2023-02-23T07:53:39;164.63;;;47.33;;
56015;SDS011;41894;51.016;4.672;2023-02-23T07:56:07;174.25;;;47.92;;
56015;SDS011;41894;51.016;4.672;2023-02-23T07:58:35;189.32;;;49.20;;
56015;SDS011;41894;51.016;4.672;2023-02-23T08:01:01;246.15;;;50.35;;
56015;SDS011;41894;51.016;4.672;2023-02-23T08:03:27;176.82;;;48.17;;
56015;SDS011;41894;51.016;4.672;2023-02-23T08:05:53;185.93;;;50.10;;
56015;SDS011;41894;51.016;4.672;2023-02-23T08:08:18;182.18;;;51.28;;
56015;SDS011;41894;51.016;4.672;2023-02-23T08:10:44;172.50;;;48.08;;
56015;SDS011;41894;51.016;4.672;2023-02-23T08:13:11;205.88;;;49.95;;
56015;SDS011;41894;51.016;4.672;2023-02-23T08:15:37;228.50;;;52.55;;
56015;SDS011;41894;51.016;4.672;2023-02-23T08:18:03;168.70;;;49.85;;
56015;SDS011;41894;51.016;4.672;2023-02-23T08:20:29;168.07;;;49.58;;
56015;SDS011;41894;51.016;4.672;2023-02-23T08:22:55;198.48;;;53.42;;
56015;SDS011;41894;51.016;4.672;2023-02-23T08:25:21;153.35;;;48.63;;
56015;SDS011;41894;51.016;4.672;2023-02-23T08:27:48;174.60;;;50.50;;
56015;SDS011;41894;51.016;4.672;2023-02-23T08:30:18;222.38;;;52.45;;
56015;SDS011;41894;51.016;4.672;2023-02-23T08:32:45;202.00;;;53.80;;
56015;SDS011;41894;51.016;4.672;2023-02-23T08:35:11;186.73;;;53.08;;
56015;SDS011;41894;51.016;4.672;2023-02-23T08:37:37;191.30;;;54.45;;
56015;SDS011;41894;51.016;4.672;2023-02-23T08:40:03;197.48;;;55.33;;
56015;SDS011;41894;51.016;4.672;2023-02-23T08:42:29;160.40;;;52.08;;
56015;SDS011;41894;51.016;4.672;2023-02-23T08:44:55;159.73;;;51.92;;
56015;SDS011;41894;51.016;4.672;2023-02-23T08:47:21;138.60;;;49.47;;
56015;SDS011;41894;51.016;4.672;2023-02-23T08:49:48;139.77;;;52.30;;
56015;SDS011;41894;51.016;4.672;2023-02-23T08:52:15;132.95;;;49.25;;
56015;SDS011;41894;51.016;4.672;2023-02-23T08:54:40;135.18;;;50.72;;
56015;SDS011;41894;51.016;4.672;2023-02-23T08:57:06;134.25;;;51.85;;
56015;SDS011;41894;51.016;4.672;2023-02-23T08:59:32;121.35;;;49.90;;
56015;SDS011;41894;51.016;4.672;2023-02-23T09:01:57;131.63;;;50.97;;
56015;SDS011;41894;51.016;4.672;2023-02-23T09:04:23;118.57;;;46.42;;
56015;SDS011;41894;51.016;4.672;2023-02-23T09:06:49;116.18;;;48.10;;
56015;SDS011;41894;51.016;4.672;2023-02-23T09:09:15;117.80;;;49.20;;
56015;SDS011;41894;51.016;4.672;2023-02-23T09:11:41;129.25;;;50.70;;
56015;SDS011;41894;51.016;4.672;2023-02-23T09:14:07;141.48;;;52.05;;
56015;SDS011;41894;51.016;4.672;2023-02-23T09:16:33;131.52;;;51.80;;
56015;SDS011;41894;51.016;4.672;2023-02-23T09:19:00;150.18;;;54.35;;
56015;SDS011;41894;51.016;4.672;2023-02-23T09:21:26;120.38;;;50.08;;
56015;SDS011;41894;51.016;4.672;2023-02-23T09:23:54;128.60;;;52.17;;
56015;SDS011;41894;51.016;4.672;2023-02-23T09:26:21;112.22;;;49.28;;
56015;SDS011;41894;51.016;4.672;2023-02-23T09:28:47;117.45;;;48.90;;
56015;SDS011;41894;51.016;4.672;2023-02-23T09:31:15;120.88;;;50.08;;
56015;SDS011;41894;51.016;4.672;2023-02-23T09:33:43;121.30;;;51.28;;
56015;SDS011;41894;51.016;4.672;2023-02-23T09:36:12;120.82;;;50.80;;
56015;SDS011;41894;51.016;4.672;2023-02-23T09:38:41;127.50;;;52.67;;
56015;SDS011;41894;51.016;4.672;2023-02-23T09:41:30;132.95;;;53.30;;
56015;SDS011;41894;51.016;4.672;2023-02-23T09:50:26;119.70;;;48.45;;
56015;SDS011;41894;51.016;4.672;2023-02-23T09:52:56;127.43;;;52.20;;
56015;SDS011;41894;51.016;4.672;2023-02-23T09:55:28;144.93;;;55.42;;
56015;SDS011;41894;51.016;4.672;2023-02-23T09:57:55;155.23;;;58.67;;
56015;SDS011;41894;51.016;4.672;2023-02-23T10:00:26;122.20;;;51.67;;
56015;SDS011;41894;51.016;4.672;2023-02-23T10:02:57;126.75;;;52.10;;
56015;SDS011;41894;51.016;4.672;2023-02-23T10:05:30;114.65;;;52.10;;
56015;SDS011;41894;51.016;4.672;2023-02-23T10:08:04;113.68;;;51.00;;
56015;SDS011;41894;51.016;4.672;2023-02-23T10:10:42;125.88;;;51.40;;
56015;SDS011;41894;51.016;4.672;2023-02-23T10:18:42;104.63;;;47.72;;
56015;SDS011;41894;51.016;4.672;2023-02-23T10:21:20;114.55;;;51.88;;
56015;SDS011;41894;51.016;4.672;2023-02-23T10:26:24;108.65;;;50.13;;
56015;SDS011;41894;51.016;4.672;2023-02-23T10:28:56;99.15;;;46.63;;
56015;SDS011;41894;51.016;4.672;2023-02-23T10:31:27;95.78;;;47.15;;
56015;SDS011;41894;51.016;4.672;2023-02-23T10:34:01;110.72;;;51.22;;
56015;SDS011;41894;51.016;4.672;2023-02-23T10:36:32;105.95;;;50.25;;
56015;SDS011;41894;51.016;4.672;2023-02-23T10:39:02;113.53;;;51.85;;
56015;SDS011;41894;51.016;4.672;2023-02-23T10:41:31;99.38;;;48.60;;
56015;SDS011;41894;51.016;4.672;2023-02-23T10:43:57;104.65;;;50.05;;
56015;SDS011;41894;51.016;4.672;2023-02-23T10:46:24;105.50;;;47.70;;
56015;SDS011;41894;51.016;4.672;2023-02-23T10:48:55;100.35;;;47.50;;
56015;SDS011;41894;51.016;4.672;2023-02-23T10:51:24;92.22;;;45.80;;
56015;SDS011;41894;51.016;4.672;2023-02-23T10:53:54;101.43;;;49.10;;
56015;SDS011;41894;51.016;4.672;2023-02-23T10:56:20;98.85;;;48.00;;
56015;SDS011;41894;51.016;4.672;2023-02-23T10:58:48;85.05;;;42.80;;
56015;SDS011;41894;51.016;4.672;2023-02-23T11:01:38;91.20;;;43.88;;
56015;SDS011;41894;51.016;4.672;2023-02-23T11:07:22;103.15;;;48.78;;
56015;SDS011;41894;51.016;4.672;2023-02-23T11:09:53;93.63;;;46.92;;
56015;SDS011;41894;51.016;4.672;2023-02-23T11:12:21;106.78;;;50.30;;
56015;SDS011;41894;51.016;4.672;2023-02-23T11:14:52;96.45;;;46.28;;
56015;SDS011;41894;51.016;4.672;2023-02-23T11:19:58;101.43;;;48.05;;
56015;SDS011;41894;51.016;4.672;2023-02-23T11:22:28;107.60;;;49.30;;
56015;SDS011;41894;51.016;4.672;2023-02-23T11:24:57;94.82;;;46.25;;
56015;SDS011;41894;51.016;4.672;2023-02-23T11:27:25;109.68;;;49.72;;
56015;SDS011;41894;51.016;4.672;2023-02-23T11:29:53;100.18;;;47.78;;
56015;SDS011;41894;51.016;4.672;2023-02-23T11:32:25;102.43;;;46.78;;
56015;SDS011;41894;51.016;4.672;2023-02-23T11:35:09;106.90;;;49.90;;
56015;SDS011;41894;51.016;4.672;2023-02-23T11:37:54;101.20;;;48.08;;
56015;SDS011;41894;51.016;4.672;2023-02-23T11:45:30;85.40;;;43.17;;
56015;SDS011;41894;51.016;4.672;2023-02-23T11:48:01;94.72;;;46.22;;
56015;SDS011;41894;51.016;4.672;2023-02-23T11:50:29;90.03;;;45.25;;
56015;SDS011;41894;51.016;4.672;2023-02-23T11:53:06;90.30;;;44.13;;
56015;SDS011;41894;51.016;4.672;2023-02-23T11:55:39;89.13;;;43.85;;
56015;SDS011;41894;51.016;4.672;2023-02-23T12:01:06;78.10;;;40.55;;
56015;SDS011;41894;51.016;4.672;2023-02-23T12:03:37;83.70;;;43.25;;
56015;SDS011;41894;51.016;4.672;2023-02-23T12:06:11;84.30;;;43.60;;
56015;SDS011;41894;51.016;4.672;2023-02-23T12:08:51;92.20;;;45.03;;
56015;SDS011;41894;51.016;4.672;2023-02-23T12:11:22;92.47;;;44.78;;
56015;SDS011;41894;51.016;4.672;2023-02-23T12:13:58;87.35;;;44.78;;
56015;SDS011;41894;51.016;4.672;2023-02-23T12:16:39;88.90;;;44.50;;
56015;SDS011;41894;51.016;4.672;2023-02-23T12:22:10;87.10;;;43.25;;
56015;SDS011;41894;51.016;4.672;2023-02-23T12:27:38;91.53;;;45.22;;
56015;SDS011;41894;51.016;4.672;2023-02-23T12:35:45;73.10;;;38.28;;
56015;SDS011;41894;51.016;4.672;2023-02-23T12:38:18;77.82;;;40.35;;
56015;SDS011;41894;51.016;4.672;2023-02-23T12:41:05;80.38;;;40.90;;
56015;SDS011;41894;51.016;4.672;2023-02-23T12:43:38;84.10;;;42.83;;
56015;SDS011;41894;51.016;4.672;2023-02-23T12:46:23;75.20;;;40.83;;
56015;SDS011;41894;51.016;4.672;2023-02-23T12:49:12;76.85;;;41.67;;
56015;SDS011;41894;51.016;4.672;2023-02-23T12:51:53;75.38;;;39.88;;
56015;SDS011;41894;51.016;4.672;2023-02-23T12:54:23;83.25;;;42.72;;
56015;SDS011;41894;51.016;4.672;2023-02-23T13:13:28;70.15;;;39.75;;
56015;SDS011;41894;51.016;4.672;2023-02-23T13:21:02;79.47;;;38.90;;
56015;SDS011;41894;51.016;4.672;2023-02-23T13:23:34;81.00;;;40.88;;
56015;SDS011;41894;51.016;4.672;2023-02-23T13:26:29;83.75;;;42.28;;
56015;SDS011;41894;51.016;4.672;2023-02-23T13:29:40;82.00;;;41.08;;
56015;SDS011;41894;51.016;4.672;2023-02-23T13:32:12;80.30;;;41.53;;
56015;SDS011;41894;51.016;4.672;2023-02-23T13:34:50;88.03;;;41.22;;
56015;SDS011;41894;51.016;4.672;2023-02-23T13:43:23;85.88;;;41.50;;
56015;SDS011;41894;51.016;4.672;2023-02-23T13:49:31;85.95;;;43.78;;
56015;SDS011;41894;51.016;4.672;2023-02-23T13:52:21;73.55;;;40.20;;
56015;SDS011;41894;51.016;4.672;2023-02-23T13:57:53;75.30;;;40.20;;
56015;SDS011;41894;51.016;4.672;2023-02-23T14:00:26;73.15;;;39.97;;
56015;SDS011;41894;51.016;4.672;2023-02-23T14:02:53;78.15;;;41.15;;
56015;SDS011;41894;51.016;4.672;2023-02-23T14:05:23;75.22;;;37.28;;
56015;SDS011;41894;51.016;4.672;2023-02-23T14:07:58;69.35;;;36.35;;
56015;SDS011;41894;51.016;4.672;2023-02-23T14:10:37;65.50;;;33.53;;
56015;SDS011;41894;51.016;4.672;2023-02-23T14:18:03;70.10;;;35.35;;
56015;SDS011;41894;51.016;4.672;2023-02-23T14:25:49;58.92;;;29.77;;
56015;SDS011;41894;51.016;4.672;2023-02-23T14:28:36;58.55;;;29.95;;
56015;SDS011;41894;51.016;4.672;2023-02-23T14:36:41;53.67;;;28.15;;
56015;SDS011;41894;51.016;4.672;2023-02-23T14:39:22;57.08;;;29.67;;
56015;SDS011;41894;51.016;4.672;2023-02-23T14:41:55;53.13;;;27.77;;
56015;SDS011;41894;51.016;4.672;2023-02-23T14:52:23;48.83;;;25.70;;
56015;SDS011;41894;51.016;4.672;2023-02-23T14:55:07;47.88;;;25.67;;
56015;SDS011;41894;51.016;4.672;2023-02-23T14:57:36;50.97;;;26.17;;
56015;SDS011;41894;51.016;4.672;2023-02-23T15:00:14;43.90;;;24.02;;
56015;SDS011;41894;51.016;4.672;2023-02-23T15:08:31;41.13;;;23.83;;
56015;SDS011;41894;51.016;4.672;2023-02-23T15:11:03;44.58;;;23.40;;
56015;SDS011;41894;51.016;4.672;2023-02-23T15:13:36;39.22;;;22.02;;
56015;SDS011;41894;51.016;4.672;2023-02-23T15:16:10;42.45;;;22.73;;
56015;SDS011;41894;51.016;4.672;2023-02-23T15:21:17;34.42;;;20.58;;
56015;SDS011;41894;51.016;4.672;2023-02-23T15:23:46;34.65;;;21.40;;
56015;SDS011;41894;51.016;4.672;2023-02-23T15:29:01;36.35;;;21.45;;
56015;SDS011;41894;51.016;4.672;2023-02-23T15:31:38;32.42;;;19.55;;
56015;SDS011;41894;51.016;4.672;2023-02-23T15:34:14;35.20;;;20.98;;
56015;SDS011;41894;51.016;4.672;2023-02-23T15:37:06;32.63;;;20.80;;
56015;SDS011;41894;51.016;4.672;2023-02-23T15:42:13;31.95;;;20.33;;
56015;SDS011;41894;51.016;4.672;2023-02-23T15:44:42;28.00;;;19.75;;
56015;SDS011;41894;51.016;4.672;2023-02-23T15:47:11;47.95;;;27.25;;
56015;SDS011;41894;51.016;4.672;2023-02-23T15:49:45;48.75;;;23.42;;
56015;SDS011;41894;51.016;4.672;2023-02-23T15:52:13;32.35;;;21.88;;
56015;SDS011;41894;51.016;4.672;2023-02-23T15:55:03;28.27;;;18.70;;
56015;SDS011;41894;51.016;4.672;2023-02-23T15:57:40;27.10;;;18.65;;
56015;SDS011;41894;51.016;4.672;2023-02-23T16:00:38;27.20;;;17.85;;
56015;SDS011;41894;51.016;4.672;2023-02-23T16:03:05;24.42;;;17.95;;
56015;SDS011;41894;51.016;4.672;2023-02-23T16:05:33;25.92;;;18.42;;
56015;SDS011;41894;51.016;4.672;2023-02-23T16:10:47;24.30;;;19.80;;
56015;SDS011;41894;51.016;4.672;2023-02-23T16:13:16;24.25;;;18.92;;
56015;SDS011;41894;51.016;4.672;2023-02-23T16:15:45;27.20;;;18.52;;
56015;SDS011;41894;51.016;4.672;2023-02-23T16:18:12;26.27;;;18.88;;
56015;SDS011;41894;51.016;4.672;2023-02-23T16:20:46;24.40;;;18.15;;
56015;SDS011;41894;51.016;4.672;2023-02-23T16:23:27;25.73;;;17.90;;
56015;SDS011;41894;51.016;4.672;2023-02-23T16:26:04;32.92;;;18.85;;
56015;SDS011;41894;51.016;4.672;2023-02-23T16:28:34;27.27;;;19.25;;
56015;SDS011;41894;51.016;4.672;2023-02-23T16:31:06;23.90;;;18.60;;
56015;SDS011;41894;51.016;4.672;2023-02-23T16:38:58;22.95;;;16.65;;
56015;SDS011;41894;51.016;4.672;2023-02-23T16:41:31;23.58;;;17.02;;
56015;SDS011;41894;51.016;4.672;2023-02-23T16:43:59;26.80;;;18.63;;
56015;SDS011;41894;51.016;4.672;2023-02-23T16:46:29;30.05;;;16.40;;
56015;SDS011;41894;51.016;4.672;2023-02-23T16:48:57;24.67;;;16.42;;
56015;SDS011;41894;51.016;4.672;2023-02-23T16:51:34;26.98;;;16.88;;
56015;SDS011;41894;51.016;4.672;2023-02-23T16:54:00;23.77;;;16.08;;
56015;SDS011;41894;51.016;4.672;2023-02-23T16:56:28;21.20;;;15.00;;
56015;SDS011;41894;51.016;4.672;2023-02-23T16:58:57;22.80;;;16.42;;
56015;SDS011;41894;51.016;4.672;2023-02-23T17:01:25;24.23;;;15.68;;
56015;SDS011;41894;51.016;4.672;2023-02-23T17:03:51;25.25;;;15.48;;
56015;SDS011;41894;51.016;4.672;2023-02-23T17:06:18;21.75;;;14.77;;
56015;SDS011;41894;51.016;4.672;2023-02-23T17:08:45;20.50;;;14.90;;
56015;SDS011;41894;51.016;4.672;2023-02-23T17:11:10;23.05;;;14.55;;
56015;SDS011;41894;51.016;4.672;2023-02-23T17:13:36;20.88;;;13.77;;